Shaw Air Force Base
KSSC : now visible

Airfield :











YOU CAN JOIN US ON...

 
LOGIN :

Register | Disclaimer

   EN    FR    IT 

 









Legend :    VFR   Marginal VFR   IFR   Intensive IFR   Very Intensive IFR
Visi :
Ceiling :
>= 8 km
>= 3000ft
5 to 8 km
1000 to 3000 ft
1500m to 5 km
500 to 1000 ft
800 to 1500m
200 to 500 ft
< 800m
< 200 ft
Symbols :   Thunderstorms  Fog  Heavy snow  Heavy precipitations  Wind > 20 kt







- Airport Elevation : 241 ft


KSSC - Shaw Air Force Base

CURRENT METAR :
  • 250756Z AUTO 00000KT 10SM CLR 23/19 A3004 RMK AO2 SLP171 T02340187 $

EXPIRED METARs :
  • 250656Z AUTO 00000KT 10SM CLR 24/19 A3004 RMK AO2 SLP171 T02350188 $
  • 250556Z AUTO 00000KT 10SM CLR 24/19 A3005 RMK AO2 SLP175 T02400191 10324 20230 57013 $

TAF TAF KSSC
Valid from the 24 at 23:00 until the 26 at 05:00 UTC


242300Z 2423/2605 VRB06KT 9999 FEW075 QNH3004INS TX35/2519Z TN21/2510Z LAST NO AMDS AFT 2423 NEXT 2807
KZJX FIR / North America



MET'MAP, your aeronautical weather chart ! - Copyright ORBIFLY December 2007 - Disclaimer

ORBIFLY MET'MAP TEAM :

Programming & Development : Alexandra Zaïnal
Concept & Development : Baudouin d'Aumeries
Co-Development & Prog : Marc-Olivier Méhu
Technical & hardware support : Manuel Goepfert

Contact : metmap@orbifly.com




SOURCES & CREDITS :

   NOAA       Earth
Advisory